Terminal Aerodrome Forecast
Issued by NWS

Home | Current Version | Previous Version | Graphics & Text | Print | Product List | Glossary On
Versions: 1 2 3 4 5 6 7 8 9 10 11 12 13 14 15 16 17
000
FTUS43 KICT 240520
TAFRSL
TAF
KRSL 240520Z 2406/2506 07013KT P6SM SCT050 BKN100
     FM240900 08009KT P6SM OVC025
     FM241100 05009KT 4SM BR OVC007
     FM241600 34007KT 3SM BR OVC005
     FM241800 34009KT P6SM SCT010 OVC080=

USA.gov is the U.S. government's official web portal to all federal, state and local government web resources and services.